sensor_id;sensor_type;location;lat;lon;timestamp;P1;durP1;ratioP1;P2;durP2;ratioP2
54683;SDS011;40582;53.100;6.686;2022-07-23T00:00:10;11.48;;;2.97;;
54683;SDS011;40582;53.100;6.686;2022-07-23T00:02:36;5.05;;;2.65;;
54683;SDS011;40582;53.100;6.686;2022-07-23T00:05:02;8.43;;;2.92;;
54683;SDS011;40582;53.100;6.686;2022-07-23T00:07:28;7.88;;;2.60;;
54683;SDS011;40582;53.100;6.686;2022-07-23T00:09:54;4.60;;;2.70;;
54683;SDS011;40582;53.100;6.686;2022-07-23T00:12:20;8.32;;;3.15;;
54683;SDS011;40582;53.100;6.686;2022-07-23T00:14:46;3.67;;;2.55;;
54683;SDS011;40582;53.100;6.686;2022-07-23T00:17:11;5.80;;;2.78;;
54683;SDS011;40582;53.100;6.686;2022-07-23T00:19:37;8.27;;;3.03;;
54683;SDS011;40582;53.100;6.686;2022-07-23T00:22:03;8.18;;;2.88;;
54683;SDS011;40582;53.100;6.686;2022-07-23T00:24:29;3.13;;;2.60;;
54683;SDS011;40582;53.100;6.686;2022-07-23T00:26:54;4.05;;;2.58;;
54683;SDS011;40582;53.100;6.686;2022-07-23T00:29:20;6.88;;;2.50;;
54683;SDS011;40582;53.100;6.686;2022-07-23T00:31:46;5.95;;;2.70;;
54683;SDS011;40582;53.100;6.686;2022-07-23T00:34:11;6.60;;;2.70;;
54683;SDS011;40582;53.100;6.686;2022-07-23T00:36:37;11.38;;;3.53;;
54683;SDS011;40582;53.100;6.686;2022-07-23T00:39:03;10.55;;;3.67;;
54683;SDS011;40582;53.100;6.686;2022-07-23T00:41:29;5.93;;;3.10;;
54683;SDS011;40582;53.100;6.686;2022-07-23T00:43:54;6.65;;;3.35;;
54683;SDS011;40582;53.100;6.686;2022-07-23T00:46:21;6.60;;;3.40;;
54683;SDS011;40582;53.100;6.686;2022-07-23T00:48:47;10.35;;;3.53;;
54683;SDS011;40582;53.100;6.686;2022-07-23T00:51:17;9.98;;;3.25;;
54683;SDS011;40582;53.100;6.686;2022-07-23T00:53:43;6.05;;;3.47;;
54683;SDS011;40582;53.100;6.686;2022-07-23T00:56:09;8.20;;;3.63;;
54683;SDS011;40582;53.100;6.686;2022-07-23T00:58:36;7.15;;;2.75;;
54683;SDS011;40582;53.100;6.686;2022-07-23T01:01:03;3.97;;;2.83;;
54683;SDS011;40582;53.100;6.686;2022-07-23T01:03:29;4.68;;;3.20;;
54683;SDS011;40582;53.100;6.686;2022-07-23T01:05:55;4.25;;;3.10;;
54683;SDS011;40582;53.100;6.686;2022-07-23T01:08:21;6.57;;;3.28;;
54683;SDS011;40582;53.100;6.686;2022-07-23T01:10:48;5.85;;;3.55;;
54683;SDS011;40582;53.100;6.686;2022-07-23T01:13:16;5.72;;;3.28;;
54683;SDS011;40582;53.100;6.686;2022-07-23T01:15:41;9.23;;;3.72;;
54683;SDS011;40582;53.100;6.686;2022-07-23T01:18:07;4.78;;;3.50;;
54683;SDS011;40582;53.100;6.686;2022-07-23T01:20:33;5.15;;;3.50;;
54683;SDS011;40582;53.100;6.686;2022-07-23T01:23:00;3.88;;;3.20;;
54683;SDS011;40582;53.100;6.686;2022-07-23T01:25:26;3.90;;;3.40;;
54683;SDS011;40582;53.100;6.686;2022-07-23T01:27:52;9.38;;;4.00;;
54683;SDS011;40582;53.100;6.686;2022-07-23T01:30:18;10.30;;;3.72;;
54683;SDS011;40582;53.100;6.686;2022-07-23T01:32:44;3.75;;;3.35;;
54683;SDS011;40582;53.100;6.686;2022-07-23T01:35:10;5.25;;;3.40;;
54683;SDS011;40582;53.100;6.686;2022-07-23T01:37:36;4.75;;;3.35;;
54683;SDS011;40582;53.100;6.686;2022-07-23T01:40:03;6.30;;;3.40;;
54683;SDS011;40582;53.100;6.686;2022-07-23T01:42:29;7.80;;;3.85;;
54683;SDS011;40582;53.100;6.686;2022-07-23T01:44:55;5.63;;;3.72;;
54683;SDS011;40582;53.100;6.686;2022-07-23T01:47:21;6.30;;;3.58;;
54683;SDS011;40582;53.100;6.686;2022-07-23T01:49:47;6.82;;;3.75;;
54683;SDS011;40582;53.100;6.686;2022-07-23T01:52:12;6.10;;;3.53;;
54683;SDS011;40582;53.100;6.686;2022-07-23T01:54:38;8.38;;;3.72;;
54683;SDS011;40582;53.100;6.686;2022-07-23T01:57:04;6.18;;;3.63;;
54683;SDS011;40582;53.100;6.686;2022-07-23T01:59:31;8.75;;;3.85;;
54683;SDS011;40582;53.100;6.686;2022-07-23T02:01:57;6.53;;;3.72;;
54683;SDS011;40582;53.100;6.686;2022-07-23T02:04:23;6.25;;;3.60;;
54683;SDS011;40582;53.100;6.686;2022-07-23T02:06:50;9.07;;;4.00;;
54683;SDS011;40582;53.100;6.686;2022-07-23T02:09:17;5.88;;;4.00;;
54683;SDS011;40582;53.100;6.686;2022-07-23T02:11:43;5.93;;;3.95;;
54683;SDS011;40582;53.100;6.686;2022-07-23T02:14:09;7.93;;;4.28;;
54683;SDS011;40582;53.100;6.686;2022-07-23T02:16:35;8.65;;;3.92;;
54683;SDS011;40582;53.100;6.686;2022-07-23T02:19:01;8.23;;;4.18;;
54683;SDS011;40582;53.100;6.686;2022-07-23T02:21:27;7.63;;;4.35;;
54683;SDS011;40582;53.100;6.686;2022-07-23T02:23:53;6.43;;;4.28;;
54683;SDS011;40582;53.100;6.686;2022-07-23T02:26:18;6.22;;;3.88;;
54683;SDS011;40582;53.100;6.686;2022-07-23T02:28:44;6.63;;;3.65;;
54683;SDS011;40582;53.100;6.686;2022-07-23T02:31:10;8.75;;;4.13;;
54683;SDS011;40582;53.100;6.686;2022-07-23T02:33:35;4.47;;;3.78;;
54683;SDS011;40582;53.100;6.686;2022-07-23T02:36:01;5.43;;;3.60;;
54683;SDS011;40582;53.100;6.686;2022-07-23T02:38:26;8.32;;;4.22;;
54683;SDS011;40582;53.100;6.686;2022-07-23T02:40:53;5.28;;;3.70;;
54683;SDS011;40582;53.100;6.686;2022-07-23T02:43:18;5.78;;;3.47;;
54683;SDS011;40582;53.100;6.686;2022-07-23T02:45:44;5.13;;;3.72;;
54683;SDS011;40582;53.100;6.686;2022-07-23T02:48:10;4.97;;;3.40;;
54683;SDS011;40582;53.100;6.686;2022-07-23T02:50:37;5.60;;;3.80;;
54683;SDS011;40582;53.100;6.686;2022-07-23T02:53:03;6.13;;;3.33;;
54683;SDS011;40582;53.100;6.686;2022-07-23T02:55:29;4.25;;;3.65;;
54683;SDS011;40582;53.100;6.686;2022-07-23T02:57:56;5.22;;;3.80;;
54683;SDS011;40582;53.100;6.686;2022-07-23T03:00:22;8.68;;;3.47;;
54683;SDS011;40582;53.100;6.686;2022-07-23T03:02:47;5.85;;;3.50;;
54683;SDS011;40582;53.100;6.686;2022-07-23T03:05:13;7.53;;;3.35;;
54683;SDS011;40582;53.100;6.686;2022-07-23T03:07:39;4.97;;;3.50;;
54683;SDS011;40582;53.100;6.686;2022-07-23T03:10:05;5.95;;;3.40;;
54683;SDS011;40582;53.100;6.686;2022-07-23T03:12:31;11.48;;;4.15;;
54683;SDS011;40582;53.100;6.686;2022-07-23T03:14:56;5.38;;;3.70;;
54683;SDS011;40582;53.100;6.686;2022-07-23T03:17:22;7.18;;;3.53;;
54683;SDS011;40582;53.100;6.686;2022-07-23T03:19:47;7.95;;;4.07;;
54683;SDS011;40582;53.100;6.686;2022-07-23T03:22:13;7.05;;;3.92;;
54683;SDS011;40582;53.100;6.686;2022-07-23T03:24:39;6.53;;;4.05;;
54683;SDS011;40582;53.100;6.686;2022-07-23T03:27:23;6.05;;;4.43;;
54683;SDS011;40582;53.100;6.686;2022-07-23T03:29:50;5.93;;;4.22;;
54683;SDS011;40582;53.100;6.686;2022-07-23T03:32:17;7.35;;;4.70;;
54683;SDS011;40582;53.100;6.686;2022-07-23T03:34:42;12.00;;;4.18;;
54683;SDS011;40582;53.100;6.686;2022-07-23T03:37:08;6.70;;;4.90;;
54683;SDS011;40582;53.100;6.686;2022-07-23T03:39:34;9.55;;;4.53;;
54683;SDS011;40582;53.100;6.686;2022-07-23T03:42:00;7.68;;;4.47;;
54683;SDS011;40582;53.100;6.686;2022-07-23T03:44:25;11.77;;;4.47;;
54683;SDS011;40582;53.100;6.686;2022-07-23T03:46:51;6.15;;;4.22;;
54683;SDS011;40582;53.100;6.686;2022-07-23T03:49:17;5.90;;;4.25;;
54683;SDS011;40582;53.100;6.686;2022-07-23T03:51:42;7.68;;;4.28;;
54683;SDS011;40582;53.100;6.686;2022-07-23T03:54:08;6.18;;;4.13;;
54683;SDS011;40582;53.100;6.686;2022-07-23T03:56:34;5.22;;;4.22;;
54683;SDS011;40582;53.100;6.686;2022-07-23T03:59:00;6.90;;;4.45;;
54683;SDS011;40582;53.100;6.686;2022-07-23T04:01:26;8.75;;;4.25;;
54683;SDS011;40582;53.100;6.686;2022-07-23T04:03:51;4.70;;;4.20;;
54683;SDS011;40582;53.100;6.686;2022-07-23T04:06:17;7.72;;;4.68;;
54683;SDS011;40582;53.100;6.686;2022-07-23T04:08:43;5.03;;;4.28;;
54683;SDS011;40582;53.100;6.686;2022-07-23T04:11:09;7.43;;;4.32;;
54683;SDS011;40582;53.100;6.686;2022-07-23T04:13:34;9.07;;;4.00;;
54683;SDS011;40582;53.100;6.686;2022-07-23T04:16:00;8.45;;;4.25;;
54683;SDS011;40582;53.100;6.686;2022-07-23T04:18:26;7.55;;;4.10;;
54683;SDS011;40582;53.100;6.686;2022-07-23T04:20:51;10.70;;;4.05;;
54683;SDS011;40582;53.100;6.686;2022-07-23T04:23:17;7.32;;;4.05;;
54683;SDS011;40582;53.100;6.686;2022-07-23T04:25:44;7.07;;;3.72;;
54683;SDS011;40582;53.100;6.686;2022-07-23T04:28:10;8.73;;;3.65;;
54683;SDS011;40582;53.100;6.686;2022-07-23T04:30:35;6.97;;;4.00;;
54683;SDS011;40582;53.100;6.686;2022-07-23T04:33:01;11.00;;;4.07;;
54683;SDS011;40582;53.100;6.686;2022-07-23T04:35:30;5.60;;;3.80;;
54683;SDS011;40582;53.100;6.686;2022-07-23T04:37:56;8.07;;;3.83;;
54683;SDS011;40582;53.100;6.686;2022-07-23T04:40:22;5.50;;;3.75;;
54683;SDS011;40582;53.100;6.686;2022-07-23T04:42:47;6.20;;;4.13;;
54683;SDS011;40582;53.100;6.686;2022-07-23T04:45:13;7.40;;;4.22;;
54683;SDS011;40582;53.100;6.686;2022-07-23T04:47:38;7.50;;;3.95;;
54683;SDS011;40582;53.100;6.686;2022-07-23T04:50:04;6.70;;;4.28;;
54683;SDS011;40582;53.100;6.686;2022-07-23T04:52:30;6.10;;;3.97;;
54683;SDS011;40582;53.100;6.686;2022-07-23T04:54:56;7.30;;;4.45;;
54683;SDS011;40582;53.100;6.686;2022-07-23T04:57:21;8.35;;;3.92;;
54683;SDS011;40582;53.100;6.686;2022-07-23T04:59:47;9.73;;;4.63;;
54683;SDS011;40582;53.100;6.686;2022-07-23T05:02:12;7.85;;;3.95;;
54683;SDS011;40582;53.100;6.686;2022-07-23T05:04:38;4.38;;;3.60;;
54683;SDS011;40582;53.100;6.686;2022-07-23T05:07:04;8.75;;;3.85;;
54683;SDS011;40582;53.100;6.686;2022-07-23T05:09:29;12.13;;;4.00;;
54683;SDS011;40582;53.100;6.686;2022-07-23T05:11:55;12.65;;;4.07;;
54683;SDS011;40582;53.100;6.686;2022-07-23T05:14:21;7.45;;;3.85;;
54683;SDS011;40582;53.100;6.686;2022-07-23T05:16:46;6.25;;;3.88;;
54683;SDS011;40582;53.100;6.686;2022-07-23T05:19:12;7.53;;;3.88;;
54683;SDS011;40582;53.100;6.686;2022-07-23T05:21:38;8.63;;;4.40;;
54683;SDS011;40582;53.100;6.686;2022-07-23T05:24:04;5.93;;;4.15;;
54683;SDS011;40582;53.100;6.686;2022-07-23T05:26:30;5.78;;;3.92;;
54683;SDS011;40582;53.100;6.686;2022-07-23T05:28:56;6.30;;;4.00;;
54683;SDS011;40582;53.100;6.686;2022-07-23T05:31:21;7.75;;;3.72;;
54683;SDS011;40582;53.100;6.686;2022-07-23T05:33:47;9.27;;;3.83;;
54683;SDS011;40582;53.100;6.686;2022-07-23T05:36:13;8.75;;;4.05;;
54683;SDS011;40582;53.100;6.686;2022-07-23T05:38:39;5.97;;;3.80;;
54683;SDS011;40582;53.100;6.686;2022-07-23T05:41:04;10.40;;;4.03;;
54683;SDS011;40582;53.100;6.686;2022-07-23T05:43:30;7.78;;;4.15;;
54683;SDS011;40582;53.100;6.686;2022-07-23T05:45:56;6.75;;;3.90;;
54683;SDS011;40582;53.100;6.686;2022-07-23T05:48:21;8.65;;;3.97;;
54683;SDS011;40582;53.100;6.686;2022-07-23T05:50:47;9.48;;;3.88;;
54683;SDS011;40582;53.100;6.686;2022-07-23T05:53:13;7.03;;;3.90;;
54683;SDS011;40582;53.100;6.686;2022-07-23T05:55:39;8.18;;;3.58;;
54683;SDS011;40582;53.100;6.686;2022-07-23T05:58:05;4.22;;;3.03;;
54683;SDS011;40582;53.100;6.686;2022-07-23T06:00:31;5.22;;;3.33;;
54683;SDS011;40582;53.100;6.686;2022-07-23T06:02:57;5.70;;;3.45;;
54683;SDS011;40582;53.100;6.686;2022-07-23T06:05:23;6.70;;;3.40;;
54683;SDS011;40582;53.100;6.686;2022-07-23T06:07:49;9.32;;;3.10;;
54683;SDS011;40582;53.100;6.686;2022-07-23T06:10:15;6.18;;;2.80;;
54683;SDS011;40582;53.100;6.686;2022-07-23T06:12:41;5.15;;;2.90;;
54683;SDS011;40582;53.100;6.686;2022-07-23T06:15:07;3.90;;;2.40;;
54683;SDS011;40582;53.100;6.686;2022-07-23T06:17:33;5.38;;;2.50;;
54683;SDS011;40582;53.100;6.686;2022-07-23T06:19:59;3.85;;;2.25;;
54683;SDS011;40582;53.100;6.686;2022-07-23T06:22:25;3.83;;;2.08;;
54683;SDS011;40582;53.100;6.686;2022-07-23T06:24:50;7.82;;;2.30;;
54683;SDS011;40582;53.100;6.686;2022-07-23T06:27:17;9.48;;;2.10;;
54683;SDS011;40582;53.100;6.686;2022-07-23T06:29:43;4.80;;;2.00;;
54683;SDS011;40582;53.100;6.686;2022-07-23T06:32:08;6.82;;;2.10;;
54683;SDS011;40582;53.100;6.686;2022-07-23T06:34:34;7.05;;;1.90;;
54683;SDS011;40582;53.100;6.686;2022-07-23T06:37:00;2.90;;;1.52;;
54683;SDS011;40582;53.100;6.686;2022-07-23T06:39:25;8.85;;;1.92;;
54683;SDS011;40582;53.100;6.686;2022-07-23T06:41:52;4.45;;;1.60;;
54683;SDS011;40582;53.100;6.686;2022-07-23T06:44:18;5.78;;;1.65;;
54683;SDS011;40582;53.100;6.686;2022-07-23T06:46:44;3.50;;;1.30;;
54683;SDS011;40582;53.100;6.686;2022-07-23T06:49:09;6.35;;;1.48;;
54683;SDS011;40582;53.100;6.686;2022-07-23T06:51:36;3.65;;;1.38;;
54683;SDS011;40582;53.100;6.686;2022-07-23T06:54:02;3.28;;;1.35;;
54683;SDS011;40582;53.100;6.686;2022-07-23T06:56:28;3.03;;;1.50;;
54683;SDS011;40582;53.100;6.686;2022-07-23T06:58:54;5.65;;;2.30;;
54683;SDS011;40582;53.100;6.686;2022-07-23T07:01:20;4.25;;;1.63;;
54683;SDS011;40582;53.100;6.686;2022-07-23T07:03:46;2.47;;;1.23;;
54683;SDS011;40582;53.100;6.686;2022-07-23T07:06:12;4.93;;;1.30;;
54683;SDS011;40582;53.100;6.686;2022-07-23T07:08:38;3.78;;;1.35;;
54683;SDS011;40582;53.100;6.686;2022-07-23T07:11:04;3.42;;;1.00;;
54683;SDS011;40582;53.100;6.686;2022-07-23T07:13:30;2.53;;;1.10;;
54683;SDS011;40582;53.100;6.686;2022-07-23T07:15:55;3.88;;;1.50;;
54683;SDS011;40582;53.100;6.686;2022-07-23T07:18:21;3.13;;;1.10;;
54683;SDS011;40582;53.100;6.686;2022-07-23T07:20:47;4.43;;;1.00;;
54683;SDS011;40582;53.100;6.686;2022-07-23T07:23:13;4.65;;;1.23;;
54683;SDS011;40582;53.100;6.686;2022-07-23T07:25:39;2.28;;;1.10;;
54683;SDS011;40582;53.100;6.686;2022-07-23T07:28:05;9.43;;;1.25;;
54683;SDS011;40582;53.100;6.686;2022-07-23T07:30:31;3.72;;;1.17;;
54683;SDS011;40582;53.100;6.686;2022-07-23T07:32:56;2.25;;;0.70;;
54683;SDS011;40582;53.100;6.686;2022-07-23T07:35:22;1.92;;;0.77;;
54683;SDS011;40582;53.100;6.686;2022-07-23T07:37:48;4.82;;;1.20;;
54683;SDS011;40582;53.100;6.686;2022-07-23T07:40:14;2.60;;;0.93;;
54683;SDS011;40582;53.100;6.686;2022-07-23T07:42:46;2.90;;;0.90;;
54683;SDS011;40582;53.100;6.686;2022-07-23T07:45:12;2.65;;;0.68;;
54683;SDS011;40582;53.100;6.686;2022-07-23T07:47:38;1.33;;;0.75;;
54683;SDS011;40582;53.100;6.686;2022-07-23T07:50:04;1.38;;;0.65;;
54683;SDS011;40582;53.100;6.686;2022-07-23T07:52:29;2.05;;;0.73;;
54683;SDS011;40582;53.100;6.686;2022-07-23T07:54:55;3.38;;;0.90;;
54683;SDS011;40582;53.100;6.686;2022-07-23T07:57:21;0.40;;;0.22;;
54683;SDS011;40582;53.100;6.686;2022-07-23T07:59:46;5.00;;;0.80;;
54683;SDS011;40582;53.100;6.686;2022-07-23T08:02:12;1.92;;;0.55;;
54683;SDS011;40582;53.100;6.686;2022-07-23T08:04:38;4.20;;;0.52;;
54683;SDS011;40582;53.100;6.686;2022-07-23T08:07:03;3.30;;;0.93;;
54683;SDS011;40582;53.100;6.686;2022-07-23T08:09:29;2.85;;;0.70;;
54683;SDS011;40582;53.100;6.686;2022-07-23T08:11:55;2.55;;;0.50;;
54683;SDS011;40582;53.100;6.686;2022-07-23T08:14:20;2.13;;;0.60;;
54683;SDS011;40582;53.100;6.686;2022-07-23T08:16:46;1.45;;;0.60;;
54683;SDS011;40582;53.100;6.686;2022-07-23T08:19:11;0.52;;;0.40;;
54683;SDS011;40582;53.100;6.686;2022-07-23T08:21:37;5.00;;;0.73;;
54683;SDS011;40582;53.100;6.686;2022-07-23T08:24:03;2.00;;;0.57;;
54683;SDS011;40582;53.100;6.686;2022-07-23T08:26:29;3.25;;;0.60;;
54683;SDS011;40582;53.100;6.686;2022-07-23T08:28:54;1.92;;;0.80;;
54683;SDS011;40582;53.100;6.686;2022-07-23T08:31:20;1.25;;;0.60;;
54683;SDS011;40582;53.100;6.686;2022-07-23T08:33:45;2.58;;;0.80;;
54683;SDS011;40582;53.100;6.686;2022-07-23T08:36:11;1.95;;;0.68;;
54683;SDS011;40582;53.100;6.686;2022-07-23T08:38:37;1.08;;;0.60;;
54683;SDS011;40582;53.100;6.686;2022-07-23T08:41:02;1.95;;;0.65;;
54683;SDS011;40582;53.100;6.686;2022-07-23T08:43:30;1.25;;;0.60;;
54683;SDS011;40582;53.100;6.686;2022-07-23T08:45:57;1.15;;;0.50;;
54683;SDS011;40582;53.100;6.686;2022-07-23T08:48:26;2.42;;;0.50;;
54683;SDS011;40582;53.100;6.686;2022-07-23T08:50:57;1.73;;;0.57;;
54683;SDS011;40582;53.100;6.686;2022-07-23T08:53:26;2.72;;;0.70;;
54683;SDS011;40582;53.100;6.686;2022-07-23T08:55:52;2.40;;;0.50;;
54683;SDS011;40582;53.100;6.686;2022-07-23T08:58:20;2.97;;;0.60;;
54683;SDS011;40582;53.100;6.686;2022-07-23T09:00:47;2.20;;;0.80;;
54683;SDS011;40582;53.100;6.686;2022-07-23T09:03:36;1.35;;;0.60;;
54683;SDS011;40582;53.100;6.686;2022-07-23T09:06:01;1.65;;;0.55;;
54683;SDS011;40582;53.100;6.686;2022-07-23T09:08:37;1.98;;;0.50;;
54683;SDS011;40582;53.100;6.686;2022-07-23T09:11:08;2.05;;;0.55;;
54683;SDS011;40582;53.100;6.686;2022-07-23T09:16:09;1.65;;;0.68;;
54683;SDS011;40582;53.100;6.686;2022-07-23T09:18:41;1.30;;;0.55;;
54683;SDS011;40582;53.100;6.686;2022-07-23T09:21:12;1.33;;;0.60;;
54683;SDS011;40582;53.100;6.686;2022-07-23T09:24:04;2.42;;;0.68;;
54683;SDS011;40582;53.100;6.686;2022-07-23T09:26:38;1.75;;;0.50;;
54683;SDS011;40582;53.100;6.686;2022-07-23T09:29:23;1.08;;;0.60;;
54683;SDS011;40582;53.100;6.686;2022-07-23T09:31:53;2.30;;;0.60;;
54683;SDS011;40582;53.100;6.686;2022-07-23T09:34:24;8.07;;;1.02;;
54683;SDS011;40582;53.100;6.686;2022-07-23T09:36:52;6.00;;;0.73;;
54683;SDS011;40582;53.100;6.686;2022-07-23T09:39:26;7.45;;;0.50;;
54683;SDS011;40582;53.100;6.686;2022-07-23T09:41:57;6.57;;;0.70;;
54683;SDS011;40582;53.100;6.686;2022-07-23T09:44:23;4.20;;;0.63;;
54683;SDS011;40582;53.100;6.686;2022-07-23T09:46:49;2.45;;;0.82;;
54683;SDS011;40582;53.100;6.686;2022-07-23T09:49:22;1.02;;;0.50;;
54683;SDS011;40582;53.100;6.686;2022-07-23T09:56:51;2.05;;;0.82;;
54683;SDS011;40582;53.100;6.686;2022-07-23T09:59:18;4.68;;;0.63;;
54683;SDS011;40582;53.100;6.686;2022-07-23T10:01:47;2.78;;;0.88;;
54683;SDS011;40582;53.100;6.686;2022-07-23T10:04:12;1.83;;;0.70;;
54683;SDS011;40582;53.100;6.686;2022-07-23T10:06:39;1.65;;;0.90;;
54683;SDS011;40582;53.100;6.686;2022-07-23T10:09:06;1.50;;;0.60;;
54683;SDS011;40582;53.100;6.686;2022-07-23T10:11:33;2.80;;;1.15;;
54683;SDS011;40582;53.100;6.686;2022-07-23T10:14:00;5.18;;;1.10;;
54683;SDS011;40582;53.100;6.686;2022-07-23T10:16:29;2.80;;;0.82;;
54683;SDS011;40582;53.100;6.686;2022-07-23T10:18:55;1.60;;;0.75;;
54683;SDS011;40582;53.100;6.686;2022-07-23T10:21:27;2.33;;;0.95;;
54683;SDS011;40582;53.100;6.686;2022-07-23T10:35:47;1.23;;;0.50;;
54683;SDS011;40582;53.100;6.686;2022-07-23T10:39:05;4.03;;;1.15;;
54683;SDS011;40582;53.100;6.686;2022-07-23T10:41:32;2.15;;;0.88;;
54683;SDS011;40582;53.100;6.686;2022-07-23T10:44:06;1.70;;;0.55;;
54683;SDS011;40582;53.100;6.686;2022-07-23T10:46:57;3.60;;;0.80;;
54683;SDS011;40582;53.100;6.686;2022-07-23T10:49:28;3.70;;;1.00;;
54683;SDS011;40582;53.100;6.686;2022-07-23T10:52:15;2.55;;;0.65;;
54683;SDS011;40582;53.100;6.686;2022-07-23T10:57:27;6.05;;;0.95;;
54683;SDS011;40582;53.100;6.686;2022-07-23T11:02:25;1.20;;;0.65;;
54683;SDS011;40582;53.100;6.686;2022-07-23T11:04:54;5.18;;;0.90;;
54683;SDS011;40582;53.100;6.686;2022-07-23T11:07:25;1.92;;;0.75;;
54683;SDS011;40582;53.100;6.686;2022-07-23T11:09:51;3.85;;;0.75;;
54683;SDS011;40582;53.100;6.686;2022-07-23T11:17:39;4.35;;;0.82;;
54683;SDS011;40582;53.100;6.686;2022-07-23T11:20:25;1.80;;;0.80;;
54683;SDS011;40582;53.100;6.686;2022-07-23T11:22:52;4.68;;;0.75;;
54683;SDS011;40582;53.100;6.686;2022-07-23T11:27:55;1.65;;;0.93;;
54683;SDS011;40582;53.100;6.686;2022-07-23T11:30:38;2.08;;;0.80;;
54683;SDS011;40582;53.100;6.686;2022-07-23T11:35:32;2.20;;;0.88;;
54683;SDS011;40582;53.100;6.686;2022-07-23T11:38:03;1.42;;;0.65;;
54683;SDS011;40582;53.100;6.686;2022-07-23T11:40:31;1.90;;;0.82;;
54683;SDS011;40582;53.100;6.686;2022-07-23T11:43:01;3.00;;;1.08;;
54683;SDS011;40582;53.100;6.686;2022-07-23T11:45:36;3.65;;;1.10;;
54683;SDS011;40582;53.100;6.686;2022-07-23T11:48:04;1.52;;;0.90;;
54683;SDS011;40582;53.100;6.686;2022-07-23T11:50:31;4.68;;;0.90;;
54683;SDS011;40582;53.100;6.686;2022-07-23T11:52:58;4.47;;;0.93;;
54683;SDS011;40582;53.100;6.686;2022-07-23T11:55:24;3.88;;;0.75;;
54683;SDS011;40582;53.100;6.686;2022-07-23T11:57:51;3.55;;;1.27;;
54683;SDS011;40582;53.100;6.686;2022-07-23T12:00:22;7.15;;;1.20;;
54683;SDS011;40582;53.100;6.686;2022-07-23T12:02:54;3.25;;;1.17;;
54683;SDS011;40582;53.100;6.686;2022-07-23T12:05:29;7.10;;;1.05;;
54683;SDS011;40582;53.100;6.686;2022-07-23T12:12:59;3.33;;;1.50;;
54683;SDS011;40582;53.100;6.686;2022-07-23T12:15:29;5.85;;;1.40;;
54683;SDS011;40582;53.100;6.686;2022-07-23T12:18:04;3.58;;;1.15;;
54683;SDS011;40582;53.100;6.686;2022-07-23T12:20:32;7.40;;;1.40;;
54683;SDS011;40582;53.100;6.686;2022-07-23T12:23:00;3.92;;;1.02;;
54683;SDS011;40582;53.100;6.686;2022-07-23T12:25:29;6.43;;;1.40;;
54683;SDS011;40582;53.100;6.686;2022-07-23T12:28:00;5.05;;;1.15;;
54683;SDS011;40582;53.100;6.686;2022-07-23T12:30:30;7.20;;;1.30;;
54683;SDS011;40582;53.100;6.686;2022-07-23T12:32:58;5.53;;;1.13;;
54683;SDS011;40582;53.100;6.686;2022-07-23T12:35:30;4.93;;;1.25;;
54683;SDS011;40582;53.100;6.686;2022-07-23T12:38:04;3.83;;;1.45;;
54683;SDS011;40582;53.100;6.686;2022-07-23T12:40:35;2.65;;;1.10;;
54683;SDS011;40582;53.100;6.686;2022-07-23T12:43:04;5.43;;;1.35;;
54683;SDS011;40582;53.100;6.686;2022-07-23T12:45:47;3.17;;;1.08;;
54683;SDS011;40582;53.100;6.686;2022-07-23T12:48:29;2.17;;;0.88;;
54683;SDS011;40582;53.100;6.686;2022-07-23T12:51:00;6.00;;;1.33;;
54683;SDS011;40582;53.100;6.686;2022-07-23T12:53:38;3.17;;;1.20;;
54683;SDS011;40582;53.100;6.686;2022-07-23T12:56:07;2.75;;;1.08;;
54683;SDS011;40582;53.100;6.686;2022-07-23T12:58:49;3.95;;;1.30;;
54683;SDS011;40582;53.100;6.686;2022-07-23T13:06:29;4.88;;;1.10;;
54683;SDS011;40582;53.100;6.686;2022-07-23T13:08:59;4.43;;;1.35;;
54683;SDS011;40582;53.100;6.686;2022-07-23T13:11:26;5.13;;;1.40;;
54683;SDS011;40582;53.100;6.686;2022-07-23T13:13:52;1.50;;;1.05;;
54683;SDS011;40582;53.100;6.686;2022-07-23T13:16:17;7.30;;;1.25;;
54683;SDS011;40582;53.100;6.686;2022-07-23T13:18:44;1.75;;;0.90;;
54683;SDS011;40582;53.100;6.686;2022-07-23T13:21:09;5.15;;;1.20;;
54683;SDS011;40582;53.100;6.686;2022-07-23T13:23:35;1.98;;;1.15;;
54683;SDS011;40582;53.100;6.686;2022-07-23T13:26:01;5.85;;;1.25;;
54683;SDS011;40582;53.100;6.686;2022-07-23T13:28:28;4.00;;;1.00;;
54683;SDS011;40582;53.100;6.686;2022-07-23T13:30:54;2.50;;;1.23;;
54683;SDS011;40582;53.100;6.686;2022-07-23T13:33:21;1.92;;;1.17;;
54683;SDS011;40582;53.100;6.686;2022-07-23T13:35:48;4.05;;;1.15;;
54683;SDS011;40582;53.100;6.686;2022-07-23T13:38:15;3.20;;;1.20;;
54683;SDS011;40582;53.100;6.686;2022-07-23T13:40:43;1.40;;;1.00;;
54683;SDS011;40582;53.100;6.686;2022-07-23T13:43:11;1.42;;;1.00;;
54683;SDS011;40582;53.100;6.686;2022-07-23T13:45:39;3.42;;;1.35;;
54683;SDS011;40582;53.100;6.686;2022-07-23T13:48:07;2.30;;;1.00;;
54683;SDS011;40582;53.100;6.686;2022-07-23T13:50:33;4.10;;;1.27;;
54683;SDS011;40582;53.100;6.686;2022-07-23T13:53:19;2.83;;;1.30;;
54683;SDS011;40582;53.100;6.686;2022-07-23T13:55:48;3.10;;;0.93;;
54683;SDS011;40582;53.100;6.686;2022-07-23T13:58:15;1.98;;;0.88;;
54683;SDS011;40582;53.100;6.686;2022-07-23T14:00:46;3.55;;;1.10;;
54683;SDS011;40582;53.100;6.686;2022-07-23T14:03:15;2.85;;;1.02;;
54683;SDS011;40582;53.100;6.686;2022-07-23T14:05:42;3.63;;;1.05;;
54683;SDS011;40582;53.100;6.686;2022-07-23T14:08:08;1.10;;;0.80;;
54683;SDS011;40582;53.100;6.686;2022-07-23T14:10:34;4.07;;;1.25;;
54683;SDS011;40582;53.100;6.686;2022-07-23T14:12:59;3.45;;;1.05;;
54683;SDS011;40582;53.100;6.686;2022-07-23T14:15:26;2.20;;;1.00;;
54683;SDS011;40582;53.100;6.686;2022-07-23T14:17:53;3.25;;;1.60;;
54683;SDS011;40582;53.100;6.686;2022-07-23T14:20:20;3.10;;;1.33;;
54683;SDS011;40582;53.100;6.686;2022-07-23T14:22:46;0.93;;;0.77;;
54683;SDS011;40582;53.100;6.686;2022-07-23T14:25:12;1.50;;;1.05;;
54683;SDS011;40582;53.100;6.686;2022-07-23T14:27:38;4.68;;;1.08;;
54683;SDS011;40582;53.100;6.686;2022-07-23T14:30:07;2.25;;;1.27;;
54683;SDS011;40582;53.100;6.686;2022-07-23T14:32:34;1.90;;;1.00;;
54683;SDS011;40582;53.100;6.686;2022-07-23T14:35:00;6.18;;;1.35;;
54683;SDS011;40582;53.100;6.686;2022-07-23T14:37:26;2.92;;;1.35;;
54683;SDS011;40582;53.100;6.686;2022-07-23T14:39:52;2.03;;;0.90;;
54683;SDS011;40582;53.100;6.686;2022-07-23T14:42:18;3.58;;;1.00;;
54683;SDS011;40582;53.100;6.686;2022-07-23T14:44:44;3.72;;;0.95;;
54683;SDS011;40582;53.100;6.686;2022-07-23T14:47:10;8.40;;;1.58;;
54683;SDS011;40582;53.100;6.686;2022-07-23T14:49:36;4.45;;;1.08;;
54683;SDS011;40582;53.100;6.686;2022-07-23T14:52:02;4.18;;;1.25;;
54683;SDS011;40582;53.100;6.686;2022-07-23T14:54:29;3.53;;;1.05;;
54683;SDS011;40582;53.100;6.686;2022-07-23T14:56:55;1.65;;;1.00;;
54683;SDS011;40582;53.100;6.686;2022-07-23T14:59:23;5.18;;;1.52;;
54683;SDS011;40582;53.100;6.686;2022-07-23T15:01:49;3.58;;;1.10;;
54683;SDS011;40582;53.100;6.686;2022-07-23T15:04:15;4.47;;;1.27;;
54683;SDS011;40582;53.100;6.686;2022-07-23T15:06:41;3.33;;;1.08;;
54683;SDS011;40582;53.100;6.686;2022-07-23T15:09:07;3.30;;;1.13;;
54683;SDS011;40582;53.100;6.686;2022-07-23T15:11:33;2.00;;;0.88;;
54683;SDS011;40582;53.100;6.686;2022-07-23T15:14:01;3.85;;;0.88;;
54683;SDS011;40582;53.100;6.686;2022-07-23T15:16:28;4.80;;;1.35;;
54683;SDS011;40582;53.100;6.686;2022-07-23T15:18:53;3.72;;;1.13;;
54683;SDS011;40582;53.100;6.686;2022-07-23T15:21:19;2.70;;;1.10;;
54683;SDS011;40582;53.100;6.686;2022-07-23T15:23:45;5.32;;;1.35;;
54683;SDS011;40582;53.100;6.686;2022-07-23T15:26:11;2.17;;;1.30;;
54683;SDS011;40582;53.100;6.686;2022-07-23T15:28:36;6.00;;;1.35;;
54683;SDS011;40582;53.100;6.686;2022-07-23T15:31:02;1.98;;;1.10;;
54683;SDS011;40582;53.100;6.686;2022-07-23T15:33:28;4.15;;;1.20;;